• Join FlightAware (Why Join?)
  • Login
  • US Flag 
05:23AM EST


 

Airport Tracker/Info


-or-


 

Live Flight TrackerFlight Track Log ✈ LBQ652 ✈ 27-Apr-2013 ✈ KIXD - KSUS

Flight Track Log - Related Links

Times and Time Zones

All times are in EDT time to prevent confusion due to time zone crossing. See the LBQ652 flight status page for this flight to view local times or setup timezone preferences in your user account.

Time Position Orientation Groundspeed Altitude Reporting Facility
EDT Latitude Longitude Course Direction KTS MPH feet Rate Location/Type
05:19AM 38.8000 -94.9000 218° Southwest 157 181 2,200  Level Kansas City TRACON
05:19AM 38.7958 -94.8650 99° East 163 188 3,400 1,500 Climbing Kansas City Center
05:20AM 38.8253 -94.7828 65° Northeast 242 278 4,900 1,620 Climbing Kansas City Center
05:21AM 38.8581 -94.7044 62° Northeast 261 300 6,700 1,680 Climbing Kansas City Center
05:22AM 38.8917 -94.6217 62° Northeast 271 312 8,300 1,740 Climbing Kansas City Center
05:23AM 38.9331 -94.5225 62° Northeast 281 323 10,300 1,680 Climbing Kansas City Center
05:24AM 38.9592 -94.4319 70° East 298 343 11,800 1,380 Climbing Kansas City Center
05:25AM 38.9522 -94.3322 95° East 295 339 13,100 1,320 Climbing Kansas City Center
05:26AM 38.9458 -94.2300 95° East 299 344 14,500 1,380 Climbing Kansas City Center
05:27AM 38.9378 -94.1100 95° East 304 350 16,000 1,380 Climbing Kansas City Center
05:28AM 38.9311 -94.0053 95° East 308 354 17,400 1,620 Climbing Kansas City Center
05:29AM 38.9250 -93.9053 94° East 294 338 19,300 1,680 Climbing Kansas City Center
05:30AM 38.9164 -93.7867 95° East 299 344 20,900 1,380 Climbing Kansas City Center
05:31AM 38.9117 -93.6883 94° East 315 362 22,100 1,020 Climbing Kansas City Center
05:32AM 38.9039 -93.5744 95° East 319 367 23,000 420 Climbing Kansas City Center
05:34AM 38.8933 -93.4525 96° East 332 382 23,000  Level Kansas City Center
05:35AM 38.8861 -93.3175 94° East 359 413 23,000  Level Kansas City Center
05:36AM 38.8756 -93.1853 96° East 369 425 23,000  Level Kansas City Center
05:37AM 38.8664 -93.0506 95° East 374 430 23,000  Level Kansas City Center
05:38AM 38.8561 -92.9142 95° East 378 435 23,000  Level Kansas City Center
05:39AM 38.8447 -92.7753 96° East 385 443 23,000  Level Kansas City Center
05:40AM 38.8336 -92.6344 96° East 390 449 23,000  Level Kansas City Center
05:41AM 38.8228 -92.4922 96° East 393 452 23,000  Level Kansas City Center
05:42AM 38.8114 -92.3461 96° East 399 459 23,000  Level Kansas City Center
05:43AM 38.8000 -92.2011 96° East 405 466 23,000  Level Kansas City Center
05:44AM 38.7875 -92.0561 96° East 406 467 23,000 -300 Level Kansas City Center
05:45AM 38.7758 -91.9111 96° East 407 468 22,500 -660 Descending Kansas City Center
05:46AM 38.7628 -91.7653 97° East 409 471 21,700 -1,740 Descending Kansas City Center
05:47AM 38.7500 -91.6264 97° East 393 452 19,000 -2,580 Descending Kansas City Center
05:48AM 38.7386 -91.5006 97° East 367 422 16,600 -2,460 Descending Kansas City Center
05:49AM 38.7286 -91.3747 96° East 361 415 14,100 -2,340 Descending Kansas City Center
05:50AM 38.7133 -91.2636 100° East 337 388 11,900 -2,100 Descending Kansas City Center
05:51AM 38.6908 -91.1569 105° East 320 368 9,900 -2,340 Descending Kansas City Center
05:52AM 38.6719 -91.0547 103° East 309 356 7,200 -3,060 Descending Kansas City Center
05:53AM 38.6556 -90.9664 103° East 273 314 3,800 -2,340 Descending Kansas City Center
05:54AM 38.6389 -90.8850 105° East 252 290 2,500 -720 Descending Kansas City Center
05:55AM 38.6292 -90.8258 102° East 201 231 2,400 -60 Descending Kansas City Center
05:56AM 38.6383 -90.7711 78° East 174 200 2,400 -420 Level Kansas City Center
05:57AM 38.6464 -90.7278 77° East 147 169 1,600 -720 Descending Kansas City Center
05:58AM 38.6528 -90.6906 78° East 126 145 1,000 -600 Descending Kansas City Center
05:59AM 38.6583 -90.6561 78° East 111 128 500 -540 Descending Kansas City Center
06:01AM 38.6500 -90.6500 108° East  Level FlightAware Approximate